Keokee, Virginia
Current Conditions -  °F | °C
As of 9:15 PM on Friday 19 Dec 2014 (Local Time) from KLNP Reporting Station
Clear Clear  
Wind Chill: 25°   Ceiling: Unl
Heat Index: 30°   Visibility: 10mi
Dew Point: 25°   Wind: 5mph
Humidity: 80%   Direction: 40°NE
Pressure: 30.16"   Gusts: NA
Location:  36.86°N, 82.9°W
Report Text: KLNP 200215Z AUTO 04004KT 10SM CLR M01/M04 A3016 RMK AO2
Loading
Personal Weather Stations






























Interactive Weather Map New forecast layout! Learn more

10-Day Weather Forecast

Advertisements
Track Severe Weather on mobile